Time;durP1;ratioP1;P1;durP2;ratioP2;P2;SDS_P1;SDS_P2;PMS_P1;PMS_P2;Temp;Humidity;BMP_temperature;BMP_pressure;BME280_temperature;BME280_humidity;BME280_pressure;Samples;Min_cycle;Max_cycle;Signal;HPM_P1;HPM_P2
2023/08/18 00:02:05;;;;;;;9.60;8.68;;;16.10;99.90;;;;;;4975205;28;20042;-76
2023/08/18 00:04:36;;;;;;;9.77;8.73;;;16.10;99.90;;;;;;4958866;28;20469;-77
2023/08/18 00:07:05;;;;;;;9.52;8.60;;;16.10;99.90;;;;;;4938877;28;20047;-77
2023/08/18 00:09:33;;;;;;;9.50;7.95;;;16.10;99.90;;;;;;4938538;28;20460;-77
2023/08/18 00:11:59;;;;;;;8.98;8.07;;;16.10;99.90;;;;;;4934750;28;20039;-77
2023/08/18 00:14:25;;;;;;;9.45;7.68;;;16.00;99.90;;;;;;4956784;28;20046;-77
2023/08/18 00:16:52;;;;;;;11.50;8.50;;;16.10;99.90;;;;;;4974175;28;20132;-77
2023/08/18 00:19:17;;;;;;;10.73;8.90;;;16.10;99.90;;;;;;4945360;28;20051;-78
2023/08/18 00:21:43;;;;;;;9.65;8.65;;;16.10;99.90;;;;;;4938473;28;20046;-77
2023/08/18 00:24:09;;;;;;;9.82;8.68;;;16.00;99.90;;;;;;4947030;28;20042;-77
2023/08/18 00:26:35;;;;;;;9.75;8.70;;;16.10;99.90;;;;;;4974444;28;20413;-77
2023/08/18 00:29:04;;;;;;;9.30;8.30;;;16.00;99.90;;;;;;4948177;28;20042;-77
2023/08/18 00:31:30;;;;;;;10.68;8.45;;;16.00;99.90;;;;;;4938755;28;20054;-78
2023/08/18 00:33:59;;;;;;;9.35;8.35;;;16.10;99.90;;;;;;4942412;28;20041;-77
2023/08/18 00:36:27;;;;;;;10.25;9.15;;;16.00;99.90;;;;;;4970682;28;20128;-77
2023/08/18 00:38:58;;;;;;;10.30;8.77;;;16.00;99.90;;;;;;4933039;29;20118;-78
2023/08/18 00:41:24;;;;;;;11.20;9.32;;;16.00;99.90;;;;;;4951880;28;20481;-77
2023/08/18 00:43:53;;;;;;;11.82;8.98;;;16.00;99.90;;;;;;4939447;28;20210;-77
2023/08/18 00:46:20;;;;;;;12.27;9.38;;;16.00;99.90;;;;;;4937370;28;20434;-77
2023/08/18 00:48:47;;;;;;;12.65;9.85;;;16.00;99.90;;;;;;4943228;28;20401;-78
2023/08/18 00:51:13;;;;;;;15.20;9.73;;;16.00;99.90;;;;;;4958317;28;20057;-77
2023/08/18 00:53:41;;;;;;;12.85;9.85;;;15.90;99.90;;;;;;4958288;28;20481;-77
2023/08/18 00:56:13;;;;;;;13.13;9.93;;;15.90;99.90;;;;;;4952071;28;20045;-78
2023/08/18 00:58:39;;;;;;;12.52;9.43;;;15.90;99.90;;;;;;4946884;28;20031;-78
2023/08/18 01:01:08;;;;;;;10.07;9.02;;;15.90;99.90;;;;;;4939092;28;20038;-77
2023/08/18 01:03:34;;;;;;;13.02;8.88;;;15.90;99.90;;;;;;4938709;28;20046;-77
2023/08/18 01:06:00;;;;;;;11.50;8.82;;;16.00;99.90;;;;;;4938206;28;20057;-77
2023/08/18 01:08:29;;;;;;;11.27;8.68;;;15.90;99.90;;;;;;4938832;28;20498;-77
2023/08/18 01:11:20;;;;;;;10.85;8.23;;;15.90;99.90;;;;;;4938694;28;20356;-77
2023/08/18 01:14:14;;;;;;;10.57;7.88;;;15.90;99.90;;;;;;4937244;29;20051;-78
2023/08/18 01:16:47;;;;;;;10.07;7.97;;;15.90;99.90;;;;;;4941706;28;20443;-77
2023/08/18 01:19:22;;;;;;;10.23;7.78;;;15.90;99.90;;;;;;4939093;28;20098;-77
2023/08/18 01:21:53;;;;;;;11.23;7.27;;;15.90;99.90;;;;;;4939069;28;20047;-77
2023/08/18 01:24:19;;;;;;;11.30;7.40;;;15.90;99.90;;;;;;4940482;28;20352;-77
2023/08/18 01:26:45;;;;;;;12.20;7.63;;;15.90;99.90;;;;;;4943360;28;20052;-77
2023/08/18 01:29:11;;;;;;;11.85;8.20;;;15.90;99.90;;;;;;4942175;28;20043;-77
2023/08/18 01:31:38;;;;;;;12.00;8.02;;;15.90;99.90;;;;;;4942376;28;20077;-77
2023/08/18 01:34:12;;;;;;;12.70;7.68;;;15.90;99.90;;;;;;4958320;28;20034;-77
2023/08/18 01:36:41;;;;;;;9.80;7.60;;;15.90;99.90;;;;;;4940567;28;20085;-77
2023/08/18 01:39:09;;;;;;;10.27;7.30;;;15.90;99.90;;;;;;4952639;28;20034;-77
2023/08/18 01:41:40;;;;;;;7.90;7.10;;;15.90;99.90;;;;;;4961459;28;20050;-77
2023/08/18 01:44:06;;;;;;;9.82;7.70;;;15.90;99.90;;;;;;4974518;28;20058;-77
2023/08/18 01:46:37;;;;;;;10.20;7.78;;;15.80;99.90;;;;;;4973933;28;20050;-77
2023/08/18 01:49:03;;;;;;;10.32;7.30;;;15.80;99.90;;;;;;4958025;28;20089;-77
2023/08/18 01:51:29;;;;;;;13.43;7.68;;;15.80;99.90;;;;;;4943584;28;20129;-77
2023/08/18 01:53:55;;;;;;;12.75;8.05;;;15.90;99.90;;;;;;4961769;28;20487;-78
2023/08/18 01:56:21;;;;;;;9.85;7.65;;;15.80;99.90;;;;;;4954267;28;20039;-78
2023/08/18 01:58:47;;;;;;;11.90;8.32;;;15.80;99.90;;;;;;4945316;28;20052;-78
2023/08/18 02:01:13;;;;;;;10.48;7.90;;;15.80;99.90;;;;;;4960971;28;20402;-78
2023/08/18 02:03:39;;;;;;;11.77;8.35;;;15.90;99.90;;;;;;4961450;28;20076;-78
2023/08/18 02:06:08;;;;;;;11.50;7.88;;;15.70;99.90;;;;;;4969087;28;20489;-77
2023/08/18 02:08:36;;;;;;;12.15;8.00;;;15.80;99.90;;;;;;4947332;28;20066;-78
2023/08/18 02:11:04;;;;;;;9.80;7.97;;;15.80;99.90;;;;;;4940768;28;20398;-78
2023/08/18 02:13:35;;;;;;;12.00;7.90;;;15.80;99.90;;;;;;4957057;28;20050;-78
2023/08/18 02:16:01;;;;;;;12.13;7.45;;;15.70;99.90;;;;;;4966062;28;20392;-78
2023/08/18 02:18:32;;;;;;;10.88;8.07;;;15.70;99.90;;;;;;4949878;28;20070;-78
2023/08/18 02:21:00;;;;;;;10.95;7.55;;;15.70;99.90;;;;;;4940831;28;20568;-78
2023/08/18 02:23:28;;;;;;;11.50;7.75;;;15.70;99.90;;;;;;4959524;28;20053;-78
2023/08/18 02:26:05;;;;;;;9.43;7.80;;;15.80;99.90;;;;;;4973802;28;20077;-78
2023/08/18 02:28:32;;;;;;;11.95;7.63;;;15.70;99.90;;;;;;4957565;28;20082;-78
2023/08/18 02:31:10;;;;;;;12.50;7.93;;;15.70;99.90;;;;;;4941053;28;20045;-78
2023/08/18 02:33:38;;;;;;;12.55;7.68;;;15.70;99.90;;;;;;4967347;28;20050;-78
2023/08/18 02:36:05;;;;;;;12.60;7.78;;;15.70;99.90;;;;;;4988698;28;20417;-78
2023/08/18 02:38:33;;;;;;;9.93;8.20;;;15.70;99.90;;;;;;4956834;28;20046;-77
2023/08/18 02:40:59;;;;;;;9.95;7.45;;;15.70;99.90;;;;;;4940650;28;20078;-77
2023/08/18 02:43:25;;;;;;;10.88;7.72;;;15.70;99.90;;;;;;4937671;28;20438;-77
2023/08/18 02:45:58;;;;;;;12.52;7.20;;;15.70;99.90;;;;;;4958288;28;20045;-78
2023/08/18 02:48:29;;;;;;;10.80;7.60;;;15.70;99.90;;;;;;4963911;28;20050;-78
2023/08/18 02:51:07;;;;;;;9.02;7.30;;;15.70;99.90;;;;;;4959957;28;20043;-78
2023/08/18 02:53:34;;;;;;;11.35;6.93;;;15.70;99.90;;;;;;4976297;28;20505;-78
2023/08/18 02:56:00;;;;;;;11.82;7.80;;;15.60;99.90;;;;;;4972976;28;20129;-78
2023/08/18 02:58:30;;;;;;;8.88;7.38;;;15.70;99.90;;;;;;4956635;28;20383;-78
2023/08/18 03:01:01;;;;;;;10.27;7.82;;;15.70;99.90;;;;;;4956365;28;20486;-78
2023/08/18 03:03:29;;;;;;;9.45;7.22;;;15.70;99.90;;;;;;4966919;28;20091;-78
2023/08/18 03:06:02;;;;;;;9.35;7.22;;;15.70;99.90;;;;;;4948885;28;20485;-78
2023/08/18 03:08:28;;;;;;;10.30;7.20;;;15.70;99.90;;;;;;4948280;28;20492;-78
2023/08/18 03:10:59;;;;;;;9.90;7.20;;;15.80;99.90;;;;;;4956930;28;20034;-79
2023/08/18 03:13:25;;;;;;;11.60;6.93;;;15.70;99.90;;;;;;4939997;28;20506;-78
2023/08/18 03:15:51;;;;;;;8.30;7.20;;;15.70;99.90;;;;;;4942813;28;20409;-78
2023/08/18 03:18:17;;;;;;;11.02;7.75;;;15.70;99.90;;;;;;4948364;28;20108;-78
2023/08/18 03:20:45;;;;;;;9.68;6.72;;;15.70;99.90;;;;;;4942176;28;20042;-78
2023/08/18 03:23:21;;;;;;;7.80;6.80;;;15.70;99.90;;;;;;4958945;28;20043;-78
2023/08/18 03:25:47;;;;;;;9.55;7.75;;;15.70;99.90;;;;;;4943279;28;20081;-78
2023/08/18 03:28:13;;;;;;;8.93;6.75;;;15.70;99.90;;;;;;4947519;28;20050;-78
2023/08/18 03:30:45;;;;;;;9.00;7.00;;;15.70;99.90;;;;;;4940559;28;20082;-78
2023/08/18 03:33:16;;;;;;;9.40;7.28;;;15.70;99.90;;;;;;4956776;28;20065;-78
2023/08/18 03:35:44;;;;;;;7.82;6.95;;;15.70;99.90;;;;;;4956080;28;20504;-78
2023/08/18 03:38:12;;;;;;;7.88;6.93;;;15.70;99.90;;;;;;4939811;28;20037;-78
2023/08/18 03:40:41;;;;;;;12.10;7.07;;;15.70;99.90;;;;;;4948016;28;20034;-78
2023/08/18 03:43:09;;;;;;;9.95;7.60;;;15.70;99.90;;;;;;4937040;28;20401;-78
2023/08/18 03:45:35;;;;;;;11.45;7.15;;;15.70;99.90;;;;;;4940144;28;20043;-78
2023/08/18 03:48:01;;;;;;;9.52;7.45;;;15.70;99.90;;;;;;4954752;28;20043;-78
2023/08/18 03:50:30;;;;;;;10.05;7.70;;;15.60;99.90;;;;;;4954717;28;20039;-78
2023/08/18 03:52:55;;;;;;;9.95;7.53;;;15.70;99.90;;;;;;4938604;28;20533;-78
2023/08/18 03:55:22;;;;;;;10.32;8.00;;;15.70;99.90;;;;;;4972791;28;20042;-78
2023/08/18 03:57:47;;;;;;;10.30;8.10;;;15.70;99.90;;;;;;4942120;28;20500;-78
2023/08/18 04:00:17;;;;;;;9.65;8.55;;;15.70;99.90;;;;;;4939921;28;20046;-78
2023/08/18 04:02:44;;;;;;;9.95;8.50;;;15.60;99.90;;;;;;4939702;28;20043;-78
2023/08/18 04:05:13;;;;;;;10.48;8.45;;;15.70;99.90;;;;;;4945369;28;20042;-78
2023/08/18 04:07:44;;;;;;;11.30;8.55;;;15.70;99.90;;;;;;4935117;28;20046;-78
2023/08/18 04:10:13;;;;;;;10.60;8.93;;;15.70;99.90;;;;;;4939003;28;20042;-78
2023/08/18 04:12:39;;;;;;;12.82;8.88;;;15.60;99.90;;;;;;4954969;28;20045;-78
2023/08/18 04:15:05;;;;;;;10.60;9.05;;;15.60;99.90;;;;;;4939560;28;20039;-78
2023/08/18 04:17:31;;;;;;;12.68;9.77;;;15.60;99.90;;;;;;4938238;28;20150;-78
2023/08/18 04:20:00;;;;;;;13.88;10.57;;;15.60;99.90;;;;;;4938696;28;20031;-78
2023/08/18 04:22:25;;;;;;;12.30;9.90;;;15.60;99.90;;;;;;4950111;28;20042;-78
2023/08/18 04:24:51;;;;;;;11.55;9.70;;;15.70;99.90;;;;;;4955285;28;20050;-77
2023/08/18 04:27:17;;;;;;;12.60;11.05;;;15.60;99.90;;;;;;4930586;28;20050;-78
2023/08/18 04:29:44;;;;;;;13.98;11.23;;;15.60;99.90;;;;;;4954275;28;20050;-78
2023/08/18 04:32:10;;;;;;;12.63;10.73;;;15.60;99.90;;;;;;4947216;28;20045;-77
2023/08/18 04:34:36;;;;;;;13.98;11.43;;;15.60;99.90;;;;;;4947659;28;20110;-77
2023/08/18 04:37:02;;;;;;;13.73;11.07;;;15.60;99.90;;;;;;4955164;28;20174;-78
2023/08/18 04:39:29;;;;;;;14.32;11.88;;;15.60;99.90;;;;;;4939405;28;20413;-78
2023/08/18 04:42:00;;;;;;;14.93;11.05;;;15.60;99.90;;;;;;4954235;28;20073;-78
2023/08/18 04:44:28;;;;;;;13.93;11.70;;;15.60;99.90;;;;;;4956767;28;20042;-78
2023/08/18 04:47:03;;;;;;;13.45;10.75;;;15.60;99.90;;;;;;4967171;28;20047;-78
2023/08/18 04:49:29;;;;;;;15.30;11.43;;;15.70;99.90;;;;;;4972079;28;20521;-78
2023/08/18 04:51:55;;;;;;;13.98;11.35;;;15.60;99.90;;;;;;4955095;28;20035;-78
2023/08/18 04:54:23;;;;;;;16.35;11.95;;;15.60;99.90;;;;;;4938982;28;20043;-78
2023/08/18 04:57:03;;;;;;;15.60;11.32;;;15.60;99.90;;;;;;4952965;28;20109;-78
2023/08/18 04:59:32;;;;;;;13.77;11.25;;;15.70;99.90;;;;;;4963033;28;20049;-78
2023/08/18 05:02:00;;;;;;;13.75;11.60;;;15.70;99.90;;;;;;4953365;28;20043;-78
2023/08/18 05:04:34;;;;;;;14.40;12.02;;;15.70;99.90;;;;;;4976516;28;20125;-78
2023/08/18 05:07:00;;;;;;;15.40;11.50;;;15.70;99.90;;;;;;4970061;28;20068;-78
2023/08/18 05:09:26;;;;;;;15.55;11.63;;;15.70;99.90;;;;;;4943184;28;20199;-78
2023/08/18 05:11:51;;;;;;;13.00;11.63;;;15.70;99.90;;;;;;4967953;28;20042;-78
2023/08/18 05:14:17;;;;;;;13.32;11.27;;;15.70;99.90;;;;;;4971539;28;20043;-78
2023/08/18 05:16:51;;;;;;;13.68;11.95;;;15.70;99.90;;;;;;4954019;29;20045;-78
2023/08/18 05:19:16;;;;;;;14.77;11.73;;;15.80;99.90;;;;;;4962004;28;20046;-78
2023/08/18 05:21:48;;;;;;;15.88;11.20;;;15.80;99.90;;;;;;4936027;28;20047;-78
2023/08/18 05:24:14;;;;;;;13.32;11.73;;;15.80;99.90;;;;;;4965978;28;20465;-78
2023/08/18 05:26:39;;;;;;;15.00;11.93;;;15.80;99.90;;;;;;4962033;28;20133;-78
2023/08/18 05:29:05;;;;;;;14.20;10.90;;;15.80;99.90;;;;;;4977463;28;20050;-78
2023/08/18 05:31:35;;;;;;;15.45;10.98;;;15.80;99.90;;;;;;4959532;28;20059;-78
2023/08/18 05:34:04;;;;;;;13.88;11.43;;;15.80;99.90;;;;;;4942478;28;20420;-78
2023/08/18 05:36:31;;;;;;;16.10;11.25;;;15.80;99.90;;;;;;4950746;28;20038;-78
2023/08/18 05:38:59;;;;;;;13.07;11.73;;;15.80;99.90;;;;;;4957236;28;21122;-78
2023/08/18 05:41:25;;;;;;;16.02;11.50;;;15.90;99.90;;;;;;4941286;28;20039;-78
2023/08/18 05:43:51;;;;;;;13.98;11.60;;;15.90;99.90;;;;;;4938350;28;20477;-78
2023/08/18 05:46:17;;;;;;;12.93;11.60;;;15.90;99.90;;;;;;4955696;28;20057;-78
2023/08/18 05:48:48;;;;;;;16.65;12.00;;;15.90;99.90;;;;;;4956229;28;20045;-78
2023/08/18 05:51:14;;;;;;;12.88;11.00;;;15.90;99.90;;;;;;4942412;28;20181;-78
2023/08/18 05:53:40;;;;;;;13.60;10.40;;;15.90;99.90;;;;;;4956547;28;20126;-77
2023/08/18 05:56:06;;;;;;;12.50;11.10;;;15.90;99.90;;;;;;4949126;28;20049;-77
2023/08/18 05:58:32;;;;;;;12.77;10.90;;;16.00;99.90;;;;;;4966202;28;20046;-77
2023/08/18 06:00:58;;;;;;;12.82;10.90;;;16.00;99.90;;;;;;4962487;28;20500;-76
2023/08/18 06:03:24;;;;;;;14.82;10.88;;;16.10;99.90;;;;;;4971862;28;20043;-76
2023/08/18 06:05:52;;;;;;;12.20;10.60;;;16.10;99.90;;;;;;4941499;28;20047;-77
2023/08/18 06:08:18;;;;;;;11.88;10.68;;;16.10;99.90;;;;;;4938568;28;20039;-76
2023/08/18 06:10:47;;;;;;;13.68;11.00;;;16.20;99.90;;;;;;4972824;28;20031;-80
2023/08/18 06:13:13;;;;;;;12.25;10.95;;;16.20;99.90;;;;;;4975826;28;20035;-80
2023/08/18 06:15:39;;;;;;;11.98;10.70;;;16.20;99.90;;;;;;4958615;28;20182;-78
2023/08/18 06:18:05;;;;;;;11.90;10.68;;;16.20;99.90;;;;;;4983311;28;20044;-79
2023/08/18 06:20:30;;;;;;;12.93;11.20;;;16.30;99.90;;;;;;4983593;28;20518;-79
2023/08/18 06:22:56;;;;;;;13.60;10.50;;;16.30;99.90;;;;;;4983609;28;20070;-79
2023/08/18 06:25:22;;;;;;;14.38;11.20;;;16.30;99.90;;;;;;4982173;28;20046;-79
2023/08/18 06:27:48;;;;;;;12.35;11.07;;;16.30;99.90;;;;;;4982153;28;20042;-79
2023/08/18 06:30:13;;;;;;;17.08;11.10;;;16.30;99.90;;;;;;4978529;28;20099;-79
2023/08/18 06:32:43;;;;;;;12.48;11.00;;;16.40;99.90;;;;;;4957130;28;20157;-79
2023/08/18 06:35:08;;;;;;;12.40;11.10;;;16.50;99.90;;;;;;4980856;28;20108;-79
2023/08/18 06:37:34;;;;;;;14.82;11.00;;;16.50;99.90;;;;;;4949702;28;20067;-79
2023/08/18 06:40:00;;;;;;;11.40;10.30;;;16.60;99.90;;;;;;4953834;28;20046;-79
2023/08/18 06:42:31;;;;;;;13.13;10.50;;;16.60;99.90;;;;;;4957075;28;20049;-77
2023/08/18 06:44:57;;;;;;;12.93;11.45;;;16.60;99.90;;;;;;4953597;28;20093;-78
2023/08/18 06:47:25;;;;;;;15.85;10.70;;;16.70;99.90;;;;;;4972733;28;20042;-78
2023/08/18 06:49:56;;;;;;;13.80;11.68;;;16.60;99.90;;;;;;4957335;28;20493;-77
2023/08/18 06:52:22;;;;;;;12.48;10.85;;;16.70;99.90;;;;;;4956847;28;20050;-78
2023/08/18 06:54:48;;;;;;;13.95;11.57;;;16.70;99.90;;;;;;4956971;28;20043;-79
2023/08/18 06:57:14;;;;;;;13.18;11.65;;;16.70;99.90;;;;;;4946972;28;20408;-79
2023/08/18 06:59:39;;;;;;;13.65;11.75;;;16.70;99.90;;;;;;4950455;28;20043;-78
2023/08/18 07:02:05;;;;;;;12.52;11.23;;;16.80;99.90;;;;;;4957249;28;20496;-78
2023/08/18 07:04:31;;;;;;;14.13;12.25;;;16.80;99.90;;;;;;4957192;28;20101;-79
2023/08/18 07:06:57;;;;;;;11.73;10.25;;;16.80;99.90;;;;;;4957161;28;20281;-79
2023/08/18 07:09:22;;;;;;;14.75;12.32;;;16.80;99.90;;;;;;4962802;28;20050;-79
2023/08/18 07:11:48;;;;;;;14.20;12.70;;;16.90;99.90;;;;;;4959185;28;20065;-79
2023/08/18 07:14:14;;;;;;;13.25;12.02;;;16.90;99.90;;;;;;4955098;28;20435;-78
2023/08/18 07:16:39;;;;;;;13.88;12.00;;;16.90;99.90;;;;;;4959107;28;20409;-78
2023/08/18 07:19:05;;;;;;;13.43;12.00;;;16.90;99.90;;;;;;4967495;28;20555;-78
2023/08/18 07:21:31;;;;;;;14.95;11.95;;;17.00;99.90;;;;;;4963117;28;20046;-79
2023/08/18 07:23:57;;;;;;;14.63;11.82;;;17.00;99.90;;;;;;4976867;28;20129;-78
2023/08/18 07:26:22;;;;;;;13.85;12.35;;;17.10;99.90;;;;;;4963201;28;20042;-79
2023/08/18 07:28:48;;;;;;;13.00;11.70;;;17.10;99.90;;;;;;4957401;28;20415;-78
2023/08/18 07:31:14;;;;;;;14.50;12.20;;;17.10;99.90;;;;;;4949246;28;20071;-79
2023/08/18 07:33:39;;;;;;;14.95;12.32;;;17.20;99.90;;;;;;4977104;28;20077;-79
2023/08/18 07:36:05;;;;;;;14.95;11.93;;;17.30;99.90;;;;;;4964885;28;20457;-79
2023/08/18 07:38:34;;;;;;;12.95;11.55;;;17.30;99.90;;;;;;4943254;28;20035;-79
2023/08/18 07:41:00;;;;;;;13.05;11.77;;;17.40;99.90;;;;;;4978510;28;20038;-79
2023/08/18 07:43:26;;;;;;;13.48;11.77;;;17.40;99.90;;;;;;4957965;28;20065;-78
2023/08/18 07:45:52;;;;;;;13.23;11.82;;;17.40;99.90;;;;;;4987129;28;20509;-78
2023/08/18 07:48:17;;;;;;;14.32;12.55;;;17.40;99.90;;;;;;4972727;28;20054;-78
2023/08/18 07:50:43;;;;;;;15.38;12.82;;;17.50;99.90;;;;;;4981868;28;20031;-79
2023/08/18 07:53:09;;;;;;;14.88;13.35;;;17.50;99.90;;;;;;4964851;28;20043;-79
2023/08/18 07:55:36;;;;;;;14.85;13.10;;;17.60;99.90;;;;;;4967356;28;20042;-79
2023/08/18 07:58:03;;;;;;;13.95;12.45;;;17.60;99.90;;;;;;4966228;28;20038;-79
2023/08/18 08:00:30;;;;;;;16.05;12.98;;;17.80;99.90;;;;;;4970737;28;20052;-78
2023/08/18 08:02:57;;;;;;;15.95;13.82;;;17.90;99.90;;;;;;4958311;28;20042;-79
2023/08/18 08:05:23;;;;;;;15.40;12.77;;;18.00;99.90;;;;;;4969177;28;20428;-79
2023/08/18 08:07:49;;;;;;;17.73;14.10;;;18.00;99.90;;;;;;4969968;28;20513;-79
2023/08/18 08:10:15;;;;;;;16.45;13.02;;;17.90;99.90;;;;;;4956183;28;20052;-79
2023/08/18 08:12:42;;;;;;;13.98;12.55;;;18.00;99.90;;;;;;4936122;28;20133;-79
2023/08/18 08:15:10;;;;;;;14.88;12.25;;;18.10;99.90;;;;;;4966452;28;20125;-78
2023/08/18 08:17:36;;;;;;;14.80;12.75;;;18.20;99.90;;;;;;4960738;28;20382;-79
2023/08/18 08:20:17;;;;;;;13.73;11.70;;;18.30;99.90;;;;;;4977753;28;20039;-78
2023/08/18 08:22:50;;;;;;;17.27;11.77;;;18.40;99.90;;;;;;4987332;28;20050;-79
2023/08/18 08:25:16;;;;;;;;;;;18.60;99.90;;;;;;4972551;28;20043;-78
2023/08/18 08:27:42;;;;;;;13.77;10.90;;;18.50;99.90;;;;;;4956741;28;19933;-79
2023/08/18 08:30:11;;;;;;;12.20;10.15;;;18.50;99.90;;;;;;4957060;28;20038;-78
2023/08/18 08:32:36;;;;;;;12.77;10.40;;;18.60;99.90;;;;;;4956994;28;20051;-80
2023/08/18 08:35:02;;;;;;;12.18;10.55;;;18.70;99.90;;;;;;4957426;28;20402;-79
2023/08/18 08:37:28;;;;;;;13.70;9.95;;;18.70;99.90;;;;;;4957108;28;20046;-79
2023/08/18 08:39:55;;;;;;;11.60;9.98;;;18.70;99.90;;;;;;4956743;28;20039;-79
2023/08/18 08:42:22;;;;;;;10.85;9.55;;;18.80;99.90;;;;;;4957270;28;20106;-79
2023/08/18 08:44:48;;;;;;;12.00;10.00;;;18.80;99.90;;;;;;4945413;28;20038;-79
2023/08/18 08:47:14;;;;;;;12.07;10.48;;;18.90;99.90;;;;;;4967458;28;20057;-79
2023/08/18 08:49:43;;;;;;;13.25;10.18;;;19.00;99.90;;;;;;4964408;28;20106;-79
2023/08/18 08:52:16;;;;;;;12.50;10.10;;;18.90;99.90;;;;;;4963874;28;20038;-79
2023/08/18 08:55:00;;;;;;;14.23;10.68;;;19.00;99.90;;;;;;4977667;28;20441;-80
2023/08/18 08:57:26;;;;;;;12.57;9.93;;;19.00;99.90;;;;;;4985589;28;20041;-79
2023/08/18 08:59:53;;;;;;;14.93;10.35;;;19.00;99.90;;;;;;4965918;28;20118;-79
2023/08/18 09:02:19;;;;;;;11.75;10.43;;;19.00;99.90;;;;;;4960459;28;20359;-78
2023/08/18 09:04:45;;;;;;;13.98;10.73;;;19.00;99.90;;;;;;4962840;28;20042;-79
2023/08/18 09:07:12;;;;;;;13.95;10.27;;;19.10;99.90;;;;;;4977698;28;20117;-79
2023/08/18 09:09:38;;;;;;;16.20;11.20;;;19.30;99.90;;;;;;4973772;28;20089;-79
2023/08/18 09:12:07;;;;;;;13.90;10.65;;;19.50;99.90;;;;;;4972322;28;20039;-79
2023/08/18 09:14:39;;;;;;;11.25;9.65;;;19.90;99.90;;;;;;4979917;28;20038;-79
2023/08/18 09:17:05;;;;;;;12.55;9.30;;;20.60;99.90;;;;;;4950225;28;20043;-80
2023/08/18 09:19:32;;;;;;;12.05;9.50;;;21.00;99.90;;;;;;4970557;28;20097;-78
2023/08/18 09:21:59;;;;;;;11.55;9.65;;;21.00;99.90;;;;;;4957561;28;20444;-79
2023/08/18 09:24:29;;;;;;;12.27;9.73;;;21.00;99.90;;;;;;4965838;28;20114;-78
2023/08/18 09:27:04;;;;;;;13.30;10.25;;;21.00;99.90;;;;;;4971841;28;20057;-79
2023/08/18 09:29:31;;;;;;;14.75;10.52;;;21.00;99.90;;;;;;4953523;28;20192;-78
2023/08/18 09:31:57;;;;;;;12.85;10.93;;;20.80;99.90;;;;;;4956103;29;20146;-79
2023/08/18 09:34:24;;;;;;;13.35;10.88;;;20.60;99.90;;;;;;4941099;29;20345;-79
2023/08/18 09:36:54;;;;;;;12.93;9.85;;;20.60;99.90;;;;;;4944610;29;20067;-79
2023/08/18 09:39:20;;;;;;;15.15;11.13;;;20.60;99.90;;;;;;4928141;29;20039;-80
2023/08/18 09:41:52;;;;;;;12.40;10.93;;;20.50;99.90;;;;;;4946755;28;20042;-78
2023/08/18 09:44:19;;;;;;;13.60;12.07;;;20.40;99.90;;;;;;4961892;28;20493;-79
2023/08/18 09:46:56;;;;;;;13.75;12.35;;;20.40;99.90;;;;;;4941649;28;20050;-79
2023/08/18 09:49:23;;;;;;;14.63;12.60;;;20.20;99.90;;;;;;4942322;28;20058;-79
2023/08/18 09:52:19;;;;;;;15.05;12.73;;;20.20;99.90;;;;;;4976770;28;20078;-79
2023/08/18 09:54:54;;;;;;;15.73;12.70;;;20.20;99.90;;;;;;4935902;28;20046;-79
2023/08/18 09:57:36;;;;;;;16.95;13.93;;;20.30;99.90;;;;;;4944235;28;20106;-80
2023/08/18 10:00:04;;;;;;;15.38;13.77;;;20.20;99.90;;;;;;4932654;29;20058;-78
2023/08/18 10:02:34;;;;;;;18.02;14.52;;;20.20;99.90;;;;;;4941348;28;20434;-79
2023/08/18 10:05:01;;;;;;;16.05;14.10;;;20.30;99.90;;;;;;4959114;28;20046;-80
2023/08/18 10:07:28;;;;;;;18.02;15.77;;;20.20;99.90;;;;;;4957121;28;20045;-79
2023/08/18 10:09:55;;;;;;;16.08;14.43;;;20.20;99.90;;;;;;4989762;28;20093;-79
2023/08/18 10:12:21;;;;;;;17.17;15.38;;;20.10;99.90;;;;;;4978970;28;20043;-79
2023/08/18 10:14:49;;;;;;;17.98;16.10;;;20.30;99.90;;;;;;4974231;28;20040;-79
2023/08/18 10:17:16;;;;;;;19.40;17.42;;;20.30;99.90;;;;;;4945932;28;20038;-79
2023/08/18 10:19:55;;;;;;;19.45;17.33;;;20.30;99.90;;;;;;4971897;28;20050;-79
2023/08/18 10:22:28;;;;;;;20.38;17.45;;;20.30;99.90;;;;;;4973166;28;20165;-79
2023/08/18 10:24:54;;;;;;;;;;;20.40;99.90;;;;;;4984007;28;20100;-79
2023/08/18 10:27:26;;;;;;;19.02;16.90;;;20.40;99.90;;;;;;4976100;28;20008;-79
2023/08/18 10:29:57;;;;;;;21.23;19.13;;;20.40;99.90;;;;;;4963070;28;20047;-79
2023/08/18 10:32:23;;;;;;;21.02;18.83;;;20.50;99.90;;;;;;4946732;28;20305;-79
2023/08/18 10:34:50;;;;;;;21.55;19.30;;;20.60;99.90;;;;;;4969697;28;20034;-78
2023/08/18 10:37:20;;;;;;;23.73;21.42;;;20.70;99.90;;;;;;4956214;28;20051;-79
2023/08/18 10:39:48;;;;;;;23.98;21.40;;;20.70;99.90;;;;;;4959608;28;20058;-79
2023/08/18 10:42:15;;;;;;;23.45;20.73;;;20.70;99.90;;;;;;4947529;28;21372;-79
2023/08/18 10:45:21;;;;;;;24.08;21.67;;;20.90;99.90;;;;;;4954003;28;20474;-79
2023/08/18 10:47:49;;;;;;;23.55;21.15;;;21.10;99.90;;;;;;4939878;29;20074;-77
2023/08/18 10:50:17;;;;;;;24.63;22.15;;;21.40;99.90;;;;;;4974675;28;20232;-80
2023/08/18 10:52:48;;;;;;;22.45;20.25;;;21.60;99.90;;;;;;4957828;28;20609;-79
2023/08/18 10:55:18;;;;;;;22.00;19.85;;;21.90;99.90;;;;;;4963642;28;20053;-77
2023/08/18 10:57:49;;;;;;;22.58;20.48;;;22.00;99.90;;;;;;4968966;28;20473;-78
2023/08/18 11:00:24;;;;;;;21.40;19.30;;;22.00;99.90;;;;;;4992559;28;20050;-78
2023/08/18 11:02:51;;;;;;;22.05;19.80;;;22.10;99.90;;;;;;4977584;28;20125;-78
2023/08/18 11:05:31;;;;;;;21.63;19.30;;;22.30;99.90;;;;;;4955528;28;20055;-77
2023/08/18 11:08:24;;;;;;;22.00;19.73;;;22.60;99.90;;;;;;4983685;28;20579;-77
2023/08/18 11:11:03;;;;;;;22.45;20.25;;;22.80;99.90;;;;;;4960258;28;20089;-78
2023/08/18 11:13:29;;;;;;;23.52;21.23;;;22.80;99.90;;;;;;4955706;28;20042;-78
2023/08/18 11:15:59;;;;;;;24.83;21.00;;;22.70;99.90;;;;;;4966900;28;20053;-77
2023/08/18 11:18:29;;;;;;;23.33;20.92;;;22.60;99.90;;;;;;4956111;28;20129;-76
2023/08/18 11:20:57;;;;;;;25.95;23.38;;;22.50;99.90;;;;;;4951317;28;20042;-77
2023/08/18 11:23:26;;;;;;;24.25;21.85;;;22.50;99.90;;;;;;4945358;28;20043;-77
2023/08/18 11:25:58;;;;;;;22.52;20.30;;;22.50;99.90;;;;;;4950153;28;20046;-80
2023/08/18 11:28:24;;;;;;;23.25;20.98;;;22.50;99.90;;;;;;4948777;28;20461;-81
2023/08/18 11:30:55;;;;;;;21.67;19.65;;;22.60;99.90;;;;;;4959210;28;20086;-80
2023/08/18 11:33:27;;;;;;;23.05;20.85;;;22.80;99.90;;;;;;4957356;28;20114;-81
2023/08/18 11:35:54;;;;;;;22.77;20.58;;;23.20;99.90;;;;;;4950934;28;20034;-80
2023/08/18 11:38:19;;;;;;;24.98;22.50;;;23.70;99.90;;;;;;4953398;28;20094;-80
2023/08/18 11:40:46;;;;;;;24.00;21.70;;;23.70;99.90;;;;;;4964408;28;20470;-79
2023/08/18 11:43:12;;;;;;;24.00;21.75;;;23.70;99.90;;;;;;4963551;28;20391;-80
2023/08/18 11:45:39;;;;;;;24.85;22.67;;;23.90;99.90;;;;;;4960637;28;20121;-80
2023/08/18 11:48:05;;;;;;;25.35;23.15;;;23.90;99.90;;;;;;4965469;28;20043;-80
2023/08/18 11:50:35;;;;;;;26.20;23.45;;;23.80;99.90;;;;;;4952630;28;20074;-79
2023/08/18 11:53:09;;;;;;;23.80;21.60;;;23.50;99.90;;;;;;4969325;28;20097;-80
2023/08/18 11:55:39;;;;;;;25.40;23.02;;;23.60;99.90;;;;;;4966336;28;20046;-80
2023/08/18 11:58:07;;;;;;;25.23;22.95;;;23.50;99.90;;;;;;4971680;28;20073;-80
2023/08/18 12:00:37;;;;;;;24.05;21.75;;;23.70;99.90;;;;;;4968949;28;20038;-80
2023/08/18 12:03:04;;;;;;;24.10;22.00;;;24.00;99.90;;;;;;4966664;28;20035;-80
2023/08/18 12:05:31;;;;;;;23.00;20.83;;;24.10;99.90;;;;;;4970969;28;20528;-80
2023/08/18 12:07:58;;;;;;;23.63;21.17;;;24.20;99.90;;;;;;4965483;28;20049;-79
2023/08/18 12:10:24;;;;;;;22.30;19.95;;;24.20;99.90;;;;;;4975253;28;20060;-80
2023/08/18 12:12:53;;;;;;;21.85;19.90;;;24.10;99.90;;;;;;4990735;28;20046;-80
2023/08/18 12:15:21;;;;;;;22.63;20.48;;;23.80;99.90;;;;;;4944021;28;20054;-80
2023/08/18 12:17:47;;;;;;;23.15;20.83;;;23.70;99.90;;;;;;4963552;28;20037;-79
2023/08/18 12:20:13;;;;;;;23.52;21.23;;;23.80;99.90;;;;;;4965830;28;20042;-80
2023/08/18 12:22:39;;;;;;;22.08;20.17;;;24.00;99.90;;;;;;4970760;28;20035;-80
2023/08/18 12:25:05;;;;;;;24.02;21.92;;;24.30;99.90;;;;;;4966781;28;20034;-79
2023/08/18 12:27:33;;;;;;;22.45;20.48;;;24.70;99.90;;;;;;4969457;28;20529;-80
2023/08/18 12:30:00;;;;;;;20.75;18.85;;;25.30;99.90;;;;;;4979338;28;20049;-80
2023/08/18 12:32:25;;;;;;;23.27;21.08;;;25.90;99.90;;;;;;4986151;28;20050;-79
2023/08/18 12:34:51;;;;;;;21.23;19.33;;;26.40;99.90;;;;;;4969789;28;20093;-79
2023/08/18 12:37:21;;;;;;;21.10;19.27;;;26.70;99.90;;;;;;4953733;28;20071;-79
2023/08/18 12:39:47;;;;;;;21.10;19.15;;;26.70;99.90;;;;;;4972775;28;20359;-80